Time;durP1;ratioP1;P1;durP2;ratioP2;P2;SDS_P1;SDS_P2;PMS_P1;PMS_P2;Temp;Humidity;BMP_temperature;BMP_pressure;BME280_temperature;BME280_humidity;BME280_pressure;Samples;Min_cycle;Max_cycle;Signal;HPM_P1;HPM_P2
2021/07/29 00:01:39;;;;;;;13.63;3.28;;;;;;;;;;10317525;28;20543;-60
2021/07/29 00:06:38;;;;;;;9.38;2.47;;;;;;;;;;10316498;28;20055;-60
2021/07/29 00:11:36;;;;;;;7.85;3.03;;;;;;;;;;10315917;28;20067;-59
2021/07/29 00:16:43;;;;;;;11.00;2.50;;;;;;;;;;10316882;28;20064;-59
2021/07/29 00:21:44;;;;;;;6.85;2.83;;;;;;;;;;10315967;28;20059;-60
2021/07/29 00:26:43;;;;;;;5.15;2.78;;;;;;;;;;10317020;28;20067;-60
2021/07/29 00:31:41;;;;;;;8.23;2.83;;;;;;;;;;10316710;28;20088;-60
2021/07/29 00:36:39;;;;;;;7.15;3.53;;;;;;;;;;10316452;28;20048;-60
2021/07/29 00:41:39;;;;;;;7.13;2.78;;;;;;;;;;10316388;28;20470;-60
2021/07/29 00:46:37;;;;;;;7.22;2.78;;;;;;;;;;10316313;28;20516;-61
2021/07/29 00:51:36;;;;;;;7.18;3.33;;;;;;;;;;10316011;28;20045;-60
2021/07/29 00:56:35;;;;;;;6.40;3.15;;;;;;;;;;10316158;28;20051;-60
2021/07/29 01:01:35;;;;;;;11.15;2.92;;;;;;;;;;10315948;28;20039;-60
2021/07/29 01:06:33;;;;;;;7.82;2.92;;;;;;;;;;10315902;28;20409;-60
2021/07/29 01:11:32;;;;;;;10.02;2.95;;;;;;;;;;10315641;28;20491;-60
2021/07/29 01:16:30;;;;;;;7.30;3.00;;;;;;;;;;10315899;28;20051;-59
2021/07/29 01:21:30;;;;;;;5.82;2.97;;;;;;;;;;10315331;28;20044;-60
2021/07/29 01:26:29;;;;;;;9.50;3.25;;;;;;;;;;10315714;28;20430;-60
2021/07/29 01:31:28;;;;;;;5.28;2.85;;;;;;;;;;10317490;28;20076;-59
2021/07/29 01:36:26;;;;;;;7.13;2.63;;;;;;;;;;10322273;28;20087;-59
2021/07/29 01:41:26;;;;;;;9.02;2.83;;;;;;;;;;10322320;28;20444;-59
2021/07/29 01:46:24;;;;;;;7.55;2.83;;;;;;;;;;10320995;28;20041;-60
2021/07/29 01:51:23;;;;;;;5.07;2.70;;;;;;;;;;10321760;28;20476;-60
2021/07/29 01:56:21;;;;;;;5.60;2.47;;;;;;;;;;10321977;28;20055;-60
2021/07/29 02:01:24;;;;;;;8.50;2.78;;;;;;;;;;10321785;28;20052;-59
2021/07/29 02:06:23;;;;;;;6.88;3.15;;;;;;;;;;10321552;28;20048;-60
2021/07/29 02:11:24;;;;;;;4.93;3.30;;;;;;;;;;10321337;28;20076;-60
2021/07/29 02:16:25;;;;;;;6.88;2.80;;;;;;;;;;10320094;28;20052;-59
2021/07/29 02:21:24;;;;;;;12.77;3.63;;;;;;;;;;10321166;28;20084;-60
2021/07/29 02:26:22;;;;;;;6.13;2.78;;;;;;;;;;10320974;28;20061;-59
2021/07/29 02:31:20;;;;;;;6.30;2.95;;;;;;;;;;10320314;28;20080;-59
2021/07/29 02:36:20;;;;;;;14.15;3.53;;;;;;;;;;10320163;28;20082;-60
2021/07/29 02:41:20;;;;;;;5.13;2.80;;;;;;;;;;10320478;28;20049;-60
2021/07/29 02:46:18;;;;;;;6.93;3.05;;;;;;;;;;10320270;28;20056;-59
2021/07/29 02:51:17;;;;;;;11.18;3.17;;;;;;;;;;10319645;28;20072;-60
2021/07/29 02:56:17;;;;;;;10.23;3.65;;;;;;;;;;10319376;28;20496;-59
2021/07/29 03:01:15;;;;;;;9.48;3.45;;;;;;;;;;10322843;28;20068;-59
2021/07/29 03:06:14;;;;;;;9.68;3.45;;;;;;;;;;10337842;28;20063;-58
2021/07/29 03:11:12;;;;;;;12.80;3.60;;;;;;;;;;10331379;28;20075;-59
2021/07/29 03:16:12;;;;;;;6.93;4.22;;;;;;;;;;10323552;28;20040;-58
2021/07/29 03:21:10;;;;;;;8.27;3.45;;;;;;;;;;10332716;28;20075;-59
2021/07/29 03:26:09;;;;;;;19.67;4.97;;;;;;;;;;10325905;28;20110;-59
2021/07/29 03:31:07;;;;;;;14.27;4.45;;;;;;;;;;10332529;28;20071;-58
2021/07/29 03:36:07;;;;;;;12.90;4.05;;;;;;;;;;10315195;28;20075;-59
2021/07/29 03:41:08;;;;;;;9.40;3.78;;;;;;;;;;10313821;28;20071;-59
2021/07/29 03:46:07;;;;;;;10.80;3.60;;;;;;;;;;10313673;28;20048;-59
2021/07/29 03:51:11;;;;;;;14.43;4.13;;;;;;;;;;10315615;28;20068;-59
2021/07/29 03:56:09;;;;;;;11.85;4.68;;;;;;;;;;10317242;28;20040;-59
2021/07/29 04:01:09;;;;;;;13.60;7.97;;;;;;;;;;10317329;28;20052;-59
2021/07/29 04:06:09;;;;;;;14.90;4.60;;;;;;;;;;10317345;28;20448;-59
2021/07/29 04:11:07;;;;;;;16.95;4.90;;;;;;;;;;10337210;28;20071;-59
2021/07/29 04:16:05;;;;;;;10.48;5.47;;;;;;;;;;10351605;28;20048;-60
2021/07/29 04:21:04;;;;;;;17.30;6.28;;;;;;;;;;10358024;28;20044;-60
2021/07/29 04:26:04;;;;;;;21.05;7.68;;;;;;;;;;10358000;28;20056;-60
2021/07/29 04:31:02;;;;;;;24.20;9.10;;;;;;;;;;10357580;28;20079;-60
2021/07/29 04:36:00;;;;;;;26.13;8.40;;;;;;;;;;10357755;28;20048;-60
2021/07/29 04:41:02;;;;;;;20.90;8.35;;;;;;;;;;10355810;28;20067;-60
2021/07/29 04:46:03;;;;;;;15.70;4.80;;;;;;;;;;10353279;28;20484;-60
2021/07/29 04:51:02;;;;;;;18.02;4.43;;;;;;;;;;10353274;28;20514;-60
2021/07/29 04:56:02;;;;;;;14.00;4.90;;;;;;;;;;10353768;28;20076;-60
2021/07/29 05:01:05;;;;;;;6.13;3.85;;;;;;;;;;10357072;28;20040;-60
2021/07/29 05:06:03;;;;;;;;;;;;;;;;;;10359346;28;20040;-60
2021/07/29 05:11:02;;;;;;;19.52;5.43;;;;;;;;;;10364848;28;19967;-60
2021/07/29 05:16:05;;;;;;;9.35;4.15;;;;;;;;;;10365137;28;20048;-60
2021/07/29 05:21:04;;;;;;;8.23;4.75;;;;;;;;;;10364686;28;20298;-60
2021/07/29 05:26:03;;;;;;;9.73;3.65;;;;;;;;;;10363271;28;20052;-60
2021/07/29 05:31:02;;;;;;;11.52;4.90;;;;;;;;;;10364203;28;20079;-60
2021/07/29 05:36:02;;;;;;;16.13;3.60;;;;;;;;;;10363908;28;20055;-60
2021/07/29 05:41:04;;;;;;;9.55;3.65;;;;;;;;;;10363818;28;20538;-59
2021/07/29 05:46:02;;;;;;;9.35;4.03;;;;;;;;;;10363683;28;20044;-60
2021/07/29 05:51:02;;;;;;;12.38;4.55;;;;;;;;;;10363218;28;20083;-60
2021/07/29 05:56:01;;;;;;;8.05;4.00;;;;;;;;;;10363754;28;20051;-60
2021/07/29 06:00:59;;;;;;;10.88;3.95;;;;;;;;;;10362816;28;20044;-60
2021/07/29 06:05:59;;;;;;;11.98;4.15;;;;;;;;;;10362851;28;20040;-61
2021/07/29 06:11:02;;;;;;;10.95;4.32;;;;;;;;;;10363205;28;20086;-60
2021/07/29 06:16:02;;;;;;;9.80;4.90;;;;;;;;;;10362515;28;20460;-60
2021/07/29 06:21:02;;;;;;;13.40;3.97;;;;;;;;;;10362450;28;20497;-60
2021/07/29 06:26:02;;;;;;;8.20;4.35;;;;;;;;;;10362439;28;20060;-60
2021/07/29 06:31:00;;;;;;;14.82;4.05;;;;;;;;;;10361755;28;20086;-60
2021/07/29 06:36:01;;;;;;;11.60;4.78;;;;;;;;;;10361199;28;20040;-60
2021/07/29 06:40:59;;;;;;;12.23;4.57;;;;;;;;;;10361257;28;20040;-60
2021/07/29 06:46:04;;;;;;;12.32;4.40;;;;;;;;;;10360974;28;20048;-60
2021/07/29 06:51:03;;;;;;;8.82;4.88;;;;;;;;;;10360655;28;20075;-60
2021/07/29 06:56:02;;;;;;;9.80;4.57;;;;;;;;;;10360465;28;20401;-60
2021/07/29 07:01:01;;;;;;;11.60;4.22;;;;;;;;;;10360264;28;20040;-60
2021/07/29 07:06:01;;;;;;;11.45;4.63;;;;;;;;;;10360132;28;20051;-60
2021/07/29 07:10:59;;;;;;;4.60;3.58;;;;;;;;;;10359840;28;20075;-60
2021/07/29 07:15:58;;;;;;;10.68;4.07;;;;;;;;;;10359924;28;20420;-61
2021/07/29 07:21:05;;;;;;;14.23;4.82;;;;;;;;;;10359633;28;20043;-60
2021/07/29 07:26:03;;;;;;;9.38;5.28;;;;;;;;;;10359973;28;20052;-60
2021/07/29 07:31:01;;;;;;;13.60;4.93;;;;;;;;;;10358456;28;20087;-60
2021/07/29 07:36:00;;;;;;;21.25;6.03;;;;;;;;;;10359431;28;20048;-60
2021/07/29 07:41:03;;;;;;;10.70;4.90;;;;;;;;;;10359091;28;20047;-60
2021/07/29 07:46:01;;;;;;;;;;;;;;;;;;10359338;28;20052;-60
2021/07/29 07:51:00;;;;;;;15.20;5.38;;;;;;;;;;10358777;28;19959;-60
2021/07/29 07:56:02;;;;;;;7.93;5.00;;;;;;;;;;10358831;28;20059;-61
2021/07/29 08:01:03;;;;;;;12.15;5.40;;;;;;;;;;10358191;28;20103;-60
2021/07/29 08:06:02;;;;;;;9.32;5.28;;;;;;;;;;10358219;28;20515;-60
2021/07/29 08:11:03;;;;;;;6.47;4.57;;;;;;;;;;10358057;28;20079;-60
2021/07/29 08:16:01;;;;;;;12.77;5.40;;;;;;;;;;10358067;28;20044;-60
2021/07/29 08:20:59;;;;;;;10.27;4.60;;;;;;;;;;10357884;28;20044;-60
2021/07/29 08:25:58;;;;;;;6.95;4.43;;;;;;;;;;10357667;28;20052;-60
2021/07/29 08:30:57;;;;;;;10.55;5.68;;;;;;;;;;10357568;28;20086;-60
2021/07/29 08:35:56;;;;;;;9.70;4.72;;;;;;;;;;10357949;28;20047;-60
2021/07/29 08:40:54;;;;;;;12.52;5.50;;;;;;;;;;10360864;28;20504;-60
2021/07/29 08:45:53;;;;;;;13.43;6.07;;;;;;;;;;10365435;28;20040;-58
2021/07/29 08:50:53;;;;;;;9.00;4.60;;;;;;;;;;10365634;28;20087;-59
2021/07/29 08:55:51;;;;;;;9.98;5.05;;;;;;;;;;10365422;28;20432;-58
2021/07/29 09:01:02;;;;;;;12.75;5.47;;;;;;;;;;10365550;28;20040;-59
2021/07/29 09:06:03;;;;;;;12.13;5.40;;;;;;;;;;10364154;28;20501;-59
2021/07/29 09:11:01;;;;;;;7.90;4.85;;;;;;;;;;10364529;28;20477;-59
2021/07/29 09:16:09;;;;;;;8.95;4.97;;;;;;;;;;10364722;28;20036;-59
2021/07/29 09:21:13;;;;;;;10.15;6.40;;;;;;;;;;10364441;28;20052;-59
2021/07/29 09:26:12;;;;;;;16.05;5.97;;;;;;;;;;10364440;28;20052;-59
2021/07/29 09:31:17;;;;;;;10.30;5.15;;;;;;;;;;10364052;28;20106;-60
2021/07/29 09:36:17;;;;;;;10.07;5.22;;;;;;;;;;10364131;28;20044;-59
2021/07/29 09:41:23;;;;;;;13.80;5.78;;;;;;;;;;10363948;28;20040;-60
2021/07/29 09:46:24;;;;;;;17.67;6.30;;;;;;;;;;10363683;28;20052;-59
2021/07/29 09:51:24;;;;;;;7.68;5.55;;;;;;;;;;10362604;28;20102;-59
2021/07/29 09:56:23;;;;;;;10.25;6.50;;;;;;;;;;10363199;28;20052;-60
2021/07/29 10:01:41;;;;;;;9.60;5.82;;;;;;;;;;10361725;28;20536;-59
2021/07/29 10:06:41;;;;;;;8.50;5.07;;;;;;;;;;10363057;28;20051;-60
2021/07/29 10:11:42;;;;;;;14.25;5.57;;;;;;;;;;10362587;28;20059;-59
2021/07/29 10:16:47;;;;;;;10.65;5.53;;;;;;;;;;10362597;28;20048;-59
2021/07/29 10:21:47;;;;;;;20.55;6.25;;;;;;;;;;10362328;28;20055;-60
2021/07/29 10:27:06;;;;;;;14.63;5.82;;;;;;;;;;10362482;28;20052;-60
2021/07/29 10:32:09;;;;;;;12.95;6.72;;;;;;;;;;10357516;28;20087;-60
2021/07/29 10:37:09;;;;;;;11.38;5.97;;;;;;;;;;10362337;28;20052;-60
2021/07/29 10:42:07;;;;;;;13.70;6.45;;;;;;;;;;10360882;28;20054;-60
2021/07/29 10:47:07;;;;;;;16.23;6.10;;;;;;;;;;10361309;28;20386;-60
2021/07/29 10:52:10;;;;;;;13.77;5.53;;;;;;;;;;10359059;28;20044;-60
2021/07/29 10:57:10;;;;;;;16.73;6.43;;;;;;;;;;10361116;28;20332;-60
2021/07/29 11:02:10;;;;;;;14.77;5.63;;;;;;;;;;10360868;28;20481;-60
2021/07/29 11:07:11;;;;;;;10.65;4.95;;;;;;;;;;10359863;28;20051;-60
2021/07/29 11:12:13;;;;;;;13.50;5.35;;;;;;;;;;10360523;28;20063;-60
2021/07/29 11:17:12;;;;;;;7.93;5.03;;;;;;;;;;10360494;28;20051;-60
2021/07/29 11:22:11;;;;;;;12.63;5.03;;;;;;;;;;10360081;28;20048;-60
2021/07/29 11:27:13;;;;;;;10.65;5.72;;;;;;;;;;10359902;28;20074;-60
2021/07/29 11:32:11;;;;;;;10.02;6.03;;;;;;;;;;10360217;28;20079;-60
2021/07/29 11:37:10;;;;;;;12.98;5.05;;;;;;;;;;10359608;28;20043;-60
2021/07/29 11:42:09;;;;;;;10.25;5.25;;;;;;;;;;10359534;28;20485;-61
2021/07/29 11:47:08;;;;;;;13.02;4.82;;;;;;;;;;10359694;28;20044;-59
2021/07/29 11:52:08;;;;;;;13.13;4.88;;;;;;;;;;10358996;28;20091;-59
2021/07/29 11:57:06;;;;;;;13.65;5.32;;;;;;;;;;10358615;28;20040;-59
2021/07/29 12:02:07;;;;;;;10.13;5.32;;;;;;;;;;10358756;28;20044;-59
2021/07/29 12:07:06;;;;;;;16.27;5.63;;;;;;;;;;10358944;28;20059;-58
2021/07/29 12:12:05;;;;;;;15.40;6.18;;;;;;;;;;10358997;28;20138;-59
2021/07/29 12:17:03;;;;;;;15.05;5.20;;;;;;;;;;10357383;28;20048;-59
2021/07/29 12:22:22;;;;;;;14.13;6.07;;;;;;;;;;10358263;28;20112;-58
2021/07/29 12:27:21;;;;;;;20.38;7.75;;;;;;;;;;10358059;28;20078;-58
2021/07/29 12:32:24;;;;;;;11.77;4.97;;;;;;;;;;10357792;28;20436;-60
2021/07/29 12:37:30;;;;;;;15.33;5.80;;;;;;;;;;10358315;28;20060;-59
2021/07/29 12:42:30;;;;;;;13.70;6.22;;;;;;;;;;10357861;28;20044;-59
2021/07/29 12:47:30;;;;;;;18.80;6.35;;;;;;;;;;10357827;28;20044;-60
2021/07/29 12:52:30;;;;;;;12.73;5.68;;;;;;;;;;10357595;28;20086;-59
2021/07/29 12:57:29;;;;;;;20.52;5.78;;;;;;;;;;10357485;28;20048;-59
2021/07/29 13:02:27;;;;;;;15.60;6.88;;;;;;;;;;10357425;28;20561;-59
2021/07/29 13:07:26;;;;;;;20.55;6.57;;;;;;;;;;10357426;28;20416;-59
2021/07/29 13:12:26;;;;;;;21.13;6.63;;;;;;;;;;10357061;28;20102;-59
2021/07/29 13:17:25;;;;;;;11.35;6.28;;;;;;;;;;10357245;28;20346;-59
2021/07/29 13:22:23;;;;;;;17.20;6.93;;;;;;;;;;10356540;28;20404;-59
2021/07/29 13:27:22;;;;;;;14.18;5.72;;;;;;;;;;10358548;28;20043;-60
2021/07/29 13:32:21;;;;;;;18.00;6.22;;;;;;;;;;10364229;28;20075;-59
2021/07/29 13:37:20;;;;;;;15.77;5.65;;;;;;;;;;10364272;28;20055;-60
2021/07/29 13:42:18;;;;;;;13.25;6.88;;;;;;;;;;10363369;28;20086;-59
2021/07/29 13:47:16;;;;;;;16.30;6.13;;;;;;;;;;10363881;28;20382;-59
2021/07/29 13:52:16;;;;;;;18.30;6.43;;;;;;;;;;10363300;28;20084;-59
2021/07/29 13:57:14;;;;;;;14.98;7.57;;;;;;;;;;10363407;28;20071;-59
2021/07/29 14:02:13;;;;;;;15.63;6.72;;;;;;;;;;10363181;28;20080;-59
2021/07/29 14:07:11;;;;;;;18.65;7.00;;;;;;;;;;10363029;28;20051;-59
2021/07/29 14:12:11;;;;;;;16.67;7.07;;;;;;;;;;10362740;28;20083;-59
2021/07/29 14:17:15;;;;;;;19.25;11.77;;;;;;;;;;10362446;28;20070;-60
2021/07/29 14:27:36;;;;;;;19.70;7.05;;;;;;;;;;10362383;28;20049;-59
2021/07/29 14:32:34;;;;;;;23.00;10.32;;;;;;;;;;10362325;28;20087;-60
2021/07/29 14:37:33;;;;;;;18.88;9.27;;;;;;;;;;10350685;28;20078;-59
2021/07/29 14:42:31;;;;;;;21.10;9.10;;;;;;;;;;10331076;28;20063;-59
2021/07/29 14:52:50;;;;;;;13.38;7.57;;;;;;;;;;10329387;28;20461;-59
2021/07/29 16:11:46;;;;;;;20.52;7.57;;;;;;;;;;10286943;28;20069;-59
2021/07/29 16:16:45;;;;;;;17.67;7.40;;;;;;;;;;10284406;28;20103;-59
2021/07/29 16:21:43;;;;;;;16.05;7.63;;;;;;;;;;10286569;28;20103;-59
2021/07/29 16:26:41;;;;;;;29.38;8.20;;;;;;;;;;10285443;28;20076;-60
2021/07/29 16:31:41;;;;;;;16.42;7.82;;;;;;;;;;10287190;28;20060;-59
2021/07/29 16:36:39;;;;;;;20.05;8.07;;;;;;;;;;10269683;28;20069;-60
2021/07/29 16:41:37;;;;;;;18.65;7.43;;;;;;;;;;10276896;28;20521;-60
2021/07/29 16:46:36;;;;;;;18.38;7.78;;;;;;;;;;10279928;28;20256;-60
2021/07/29 16:51:37;;;;;;;15.30;7.00;;;;;;;;;;10280517;28;20057;-60
2021/07/29 16:56:35;;;;;;;10.50;7.43;;;;;;;;;;10269859;28;20068;-59
2021/07/29 17:01:34;;;;;;;19.55;7.18;;;;;;;;;;10277274;28;20178;-59
2021/07/29 17:06:32;;;;;;;27.17;7.95;;;;;;;;;;10274317;28;20068;-59
2021/07/29 17:11:32;;;;;;;24.48;8.55;;;;;;;;;;10268886;28;20084;-58
2021/07/29 17:16:31;;;;;;;18.33;7.95;;;;;;;;;;10248247;28;20320;-59
2021/07/29 17:21:29;;;;;;;22.08;8.65;;;;;;;;;;10253856;28;20072;-60
2021/07/29 17:26:28;;;;;;;23.50;9.40;;;;;;;;;;10243916;28;20498;-59
2021/07/29 17:31:27;;;;;;;16.42;8.20;;;;;;;;;;10244208;28;20065;-60
2021/07/29 17:36:26;;;;;;;28.17;8.27;;;;;;;;;;10261920;28;20505;-60
2021/07/29 17:41:24;;;;;;;29.00;8.75;;;;;;;;;;10271997;28;20072;-60
2021/07/29 17:46:23;;;;;;;26.42;9.02;;;;;;;;;;10260314;28;20076;-60
2021/07/29 17:51:22;;;;;;;39.80;11.55;;;;;;;;;;10241480;28;20076;-58
2021/07/29 17:56:21;;;;;;;24.80;10.55;;;;;;;;;;10241599;28;20274;-58
2021/07/29 18:01:19;;;;;;;27.05;16.80;;;;;;;;;;10251921;28;20103;-61
2021/07/29 18:06:20;;;;;;;28.42;15.25;;;;;;;;;;10261751;28;20065;-60
2021/07/29 18:11:20;;;;;;;27.40;15.40;;;;;;;;;;10255985;28;20049;-60
2021/07/29 18:16:18;;;;;;;25.60;11.15;;;;;;;;;;10255909;28;20049;-59
2021/07/29 18:21:18;;;;;;;23.55;8.65;;;;;;;;;;10252987;28;20131;-60
2021/07/29 18:26:16;;;;;;;24.05;10.95;;;;;;;;;;10256693;28;20072;-59
2021/07/29 18:31:16;;;;;;;17.98;9.70;;;;;;;;;;10253921;28;20511;-60
2021/07/29 18:36:14;;;;;;;15.48;8.45;;;;;;;;;;10251514;28;20088;-59
2021/07/29 18:41:13;;;;;;;20.05;9.05;;;;;;;;;;10256816;28;20076;-59
2021/07/29 18:46:11;;;;;;;30.52;9.13;;;;;;;;;;10253660;28;20076;-58
2021/07/29 18:51:11;;;;;;;26.52;10.50;;;;;;;;;;10251271;28;20509;-59
2021/07/29 18:56:11;;;;;;;21.83;10.13;;;;;;;;;;10254423;28;20061;-59
2021/07/29 19:01:09;;;;;;;19.60;9.23;;;;;;;;;;10255368;28;20083;-60
2021/07/29 19:06:08;;;;;;;20.92;9.25;;;;;;;;;;10257891;28;20041;-60
2021/07/29 19:11:08;;;;;;;27.83;9.32;;;;;;;;;;10255423;28;20041;-59
2021/07/29 19:16:07;;;;;;;27.38;10.43;;;;;;;;;;10253746;28;20315;-58
2021/07/29 19:21:06;;;;;;;17.63;8.63;;;;;;;;;;10250292;28;20080;-59
2021/07/29 19:26:05;;;;;;;18.88;7.88;;;;;;;;;;10251578;28;20099;-59
2021/07/29 19:31:05;;;;;;;18.20;8.05;;;;;;;;;;10248690;28;20506;-59
2021/07/29 19:36:05;;;;;;;26.48;9.82;;;;;;;;;;10250214;28;20083;-59
2021/07/29 19:41:03;;;;;;;29.17;10.25;;;;;;;;;;10253000;28;20076;-59
2021/07/29 19:46:01;;;;;;;24.65;9.43;;;;;;;;;;10244776;28;20063;-58
2021/07/29 19:51:01;;;;;;;24.83;8.23;;;;;;;;;;10252464;28;20077;-58
2021/07/29 19:56:00;;;;;;;21.48;9.18;;;;;;;;;;10246941;28;20509;-59
2021/07/29 20:00:58;;;;;;;24.48;9.10;;;;;;;;;;10255035;28;20490;-59
2021/07/29 20:05:57;;;;;;;24.40;7.78;;;;;;;;;;10253596;28;20072;-59
2021/07/29 20:10:56;;;;;;;19.10;8.55;;;;;;;;;;10259836;28;20065;-58
2021/07/29 20:15:55;;;;;;;22.60;8.35;;;;;;;;;;10262188;28;20072;-59
2021/07/29 20:20:53;;;;;;;20.10;7.65;;;;;;;;;;10261230;28;20085;-59
2021/07/29 20:25:53;;;;;;;21.55;9.32;;;;;;;;;;10261307;28;20080;-59
2021/07/29 20:30:53;;;;;;;22.80;8.73;;;;;;;;;;10259705;28;20072;-59
2021/07/29 20:35:51;;;;;;;29.05;9.13;;;;;;;;;;10260813;28;20076;-58
2021/07/29 20:40:50;;;;;;;24.58;8.38;;;;;;;;;;10260175;28;20485;-59
2021/07/29 20:45:48;;;;;;;23.33;8.80;;;;;;;;;;10259704;28;20080;-59
2021/07/29 20:50:48;;;;;;;25.08;8.68;;;;;;;;;;10259410;28;20466;-59
2021/07/29 20:55:46;;;;;;;25.75;9.25;;;;;;;;;;10258284;28;20045;-60
2021/07/29 21:00:45;;;;;;;20.77;8.68;;;;;;;;;;10260935;28;20045;-59
2021/07/29 21:05:43;;;;;;;21.92;10.10;;;;;;;;;;10258141;28;20072;-60
2021/07/29 21:10:43;;;;;;;21.48;10.18;;;;;;;;;;10258550;28;20068;-59
2021/07/29 21:15:41;;;;;;;27.95;10.90;;;;;;;;;;10255697;28;20517;-58
2021/07/29 21:20:42;;;;;;;37.03;11.80;;;;;;;;;;10258410;28;20052;-59
2021/07/29 21:25:40;;;;;;;20.42;10.07;;;;;;;;;;10257555;28;20443;-59
2021/07/29 21:30:40;;;;;;;26.05;9.82;;;;;;;;;;10258815;28;20068;-58
2021/07/29 21:35:38;;;;;;;17.63;9.38;;;;;;;;;;10257689;28;20120;-58
2021/07/29 21:40:37;;;;;;;27.00;9.43;;;;;;;;;;10257657;28;20451;-59
2021/07/29 21:45:36;;;;;;;21.67;9.05;;;;;;;;;;10257534;28;20063;-59
2021/07/29 21:50:36;;;;;;;25.05;9.32;;;;;;;;;;10256726;28;20069;-59
2021/07/29 21:55:35;;;;;;;24.40;10.18;;;;;;;;;;10257470;28;20072;-59
2021/07/29 22:00:33;;;;;;;21.60;9.45;;;;;;;;;;10256460;28;20552;-59
2021/07/29 22:05:32;;;;;;;26.67;11.07;;;;;;;;;;10257393;28;20068;-59
2021/07/29 22:10:31;;;;;;;18.90;9.13;;;;;;;;;;10256142;28;20046;-59
2021/07/29 22:15:30;;;;;;;18.15;8.43;;;;;;;;;;10255242;28;20037;-59
2021/07/29 22:20:28;;;;;;;26.35;9.63;;;;;;;;;;10255165;28;20079;-59
2021/07/29 22:25:26;;;;;;;23.60;9.07;;;;;;;;;;10255002;28;20077;-58
2021/07/29 22:30:28;;;;;;;20.48;8.65;;;;;;;;;;10256123;28;20069;-59
2021/07/29 22:35:27;;;;;;;27.25;9.95;;;;;;;;;;10255113;28;20049;-59
2021/07/29 22:40:26;;;;;;;20.40;9.23;;;;;;;;;;10257116;28;20091;-59
2021/07/29 22:45:25;;;;;;;25.10;8.80;;;;;;;;;;10257396;28;20081;-59
2021/07/29 22:50:24;;;;;;;20.38;10.38;;;;;;;;;;10254422;28;20455;-58
2021/07/29 22:55:22;;;;;;;18.02;8.57;;;;;;;;;;10255958;28;20045;-61
2021/07/29 23:00:20;;;;;;;24.77;8.73;;;;;;;;;;10254942;28;20080;-61
2021/07/29 23:05:20;;;;;;;19.33;9.75;;;;;;;;;;10254942;28;20087;-60
2021/07/29 23:10:19;;;;;;;20.27;9.32;;;;;;;;;;10254380;28;20045;-60
2021/07/29 23:15:17;;;;;;;22.80;9.48;;;;;;;;;;10254661;28;20049;-61
2021/07/29 23:20:15;;;;;;;23.27;8.73;;;;;;;;;;10254291;28;20053;-60
2021/07/29 23:25:17;;;;;;;21.08;9.00;;;;;;;;;;10253496;28;20069;-56
2021/07/29 23:30:15;;;;;;;18.77;8.57;;;;;;;;;;10254567;28;20084;-61
2021/07/29 23:35:19;;;;;;;20.08;8.75;;;;;;;;;;10254267;28;20147;-60
2021/07/29 23:40:19;;;;;;;22.50;9.15;;;;;;;;;;10254585;28;20498;-60
2021/07/29 23:45:18;;;;;;;18.17;8.73;;;;;;;;;;10258842;28;20077;-59
2021/07/29 23:50:17;;;;;;;21.38;9.27;;;;;;;;;;10262186;28;20498;-60
2021/07/29 23:55:15;;;;;;;19.15;7.95;;;;;;;;;;10261476;28;20080;-56
